createdAt,value
2023-02-09T00:01:38.250Z,11.33
2023-02-09T00:04:13.811Z,12.10
2023-02-09T00:06:41.552Z,12.83
2023-02-09T00:09:20.409Z,11.70
2023-02-09T00:12:08.680Z,9.27
2023-02-09T00:14:40.654Z,11.93
2023-02-09T00:17:11.049Z,10.70
2023-02-09T00:19:38.810Z,12.20
2023-02-09T00:22:06.673Z,9.80
2023-02-09T00:24:38.216Z,11.33
2023-02-09T00:27:05.996Z,13.00
2023-02-09T00:29:33.979Z,10.90
2023-02-09T00:32:03.580Z,11.97
2023-02-09T00:34:31.375Z,9.20
2023-02-09T00:36:59.129Z,11.90
2023-02-09T00:39:28.883Z,10.27
2023-02-09T00:42:08.609Z,11.97
2023-02-09T00:44:46.082Z,11.83
2023-02-09T00:47:17.253Z,10.27
2023-02-09T00:49:49.850Z,10.20
2023-02-09T00:52:17.631Z,9.40
2023-02-09T00:54:48.443Z,10.70
2023-02-09T00:57:19.196Z,10.77
2023-02-09T00:59:47.029Z,10.37
2023-02-09T01:02:19.563Z,9.57
2023-02-09T01:04:49.939Z,10.97
2023-02-09T01:07:17.836Z,12.23
2023-02-09T01:09:52.771Z,10.00
2023-02-09T01:12:20.649Z,12.10
2023-02-09T01:14:53.433Z,10.50
2023-02-09T01:17:24.703Z,10.47
2023-02-09T01:19:53.613Z,9.67
2023-02-09T01:22:21.837Z,8.87
2023-02-09T01:24:59.715Z,11.90
2023-02-09T01:27:30.118Z,10.53
2023-02-09T01:30:01.307Z,10.43
2023-02-09T01:32:30.914Z,11.10
2023-02-09T01:35:00.980Z,10.57
2023-02-09T01:37:28.983Z,9.70
2023-02-09T01:39:58.190Z,12.77
2023-02-09T01:42:27.552Z,10.23
2023-02-09T01:45:07.440Z,9.80
2023-02-09T01:47:43.499Z,10.47
2023-02-09T01:50:14.535Z,10.87
2023-02-09T01:52:43.745Z,10.30
2023-02-09T01:55:18.975Z,12.57
2023-02-09T01:57:50.925Z,11.03
2023-02-09T02:00:20.960Z,8.47
2023-02-09T02:02:56.640Z,8.27
2023-02-09T02:05:28.005Z,11.00
2023-02-09T02:07:59.671Z,12.23
2023-02-09T02:10:30.820Z,10.90
2023-02-09T02:13:11.106Z,11.10
2023-02-09T02:15:44.402Z,11.40
2023-02-09T02:18:23.184Z,12.77
2023-02-09T02:21:17.285Z,12.47
2023-02-09T02:23:49.408Z,10.30
2023-02-09T02:26:33.776Z,11.20
2023-02-09T02:29:25.563Z,11.60
2023-02-09T02:32:16.794Z,10.30
2023-02-09T02:34:47.502Z,10.80
2023-02-09T02:37:25.818Z,11.33
2023-02-09T02:40:02.767Z,12.50
2023-02-09T02:42:51.985Z,11.00
2023-02-09T02:45:31.205Z,10.47
2023-02-09T02:48:12.156Z,11.43
2023-02-09T02:50:47.065Z,11.20
2023-02-09T02:53:19.739Z,12.83
2023-02-09T02:55:48.420Z,11.87
2023-02-09T02:58:17.528Z,12.30
2023-02-09T03:00:48.468Z,12.10
2023-02-09T03:03:23.030Z,12.23
2023-02-09T03:05:51.470Z,10.33
2023-02-09T03:08:25.432Z,11.73
2023-02-09T03:10:55.393Z,11.50
2023-02-09T03:13:35.174Z,11.50
2023-02-09T03:21:46.664Z,11.90
2023-02-09T03:24:23.994Z,11.03
2023-02-09T03:27:03.025Z,10.27
2023-02-09T03:29:33.193Z,12.30
2023-02-09T03:32:05.886Z,11.07
2023-02-09T03:34:36.172Z,11.23
2023-02-09T03:37:04.011Z,10.93
2023-02-09T03:39:37.275Z,13.27
2023-02-09T03:42:05.479Z,11.20
2023-02-09T03:44:40.289Z,11.80
2023-02-09T03:47:10.406Z,9.33
2023-02-09T03:49:42.287Z,10.30
2023-02-09T03:52:12.288Z,9.67
2023-02-09T03:54:44.990Z,11.13
2023-02-09T03:57:13.214Z,12.13
2023-02-09T03:59:41.357Z,12.13
2023-02-09T04:02:12.979Z,10.77
2023-02-09T04:04:52.518Z,13.37
2023-02-09T04:07:22.594Z,10.53
2023-02-09T04:09:52.570Z,11.03
2023-02-09T04:12:20.420Z,11.23
2023-02-09T04:14:48.178Z,13.20
2023-02-09T04:17:22.041Z,12.70
2023-02-09T04:19:51.287Z,12.00
2023-02-09T04:22:22.808Z,12.10
2023-02-09T04:24:53.846Z,11.10
2023-02-09T04:27:31.964Z,12.70
2023-02-09T04:30:03.242Z,10.67
2023-02-09T04:32:35.592Z,10.10
2023-02-09T04:35:07.549Z,12.20
2023-02-09T04:37:35.308Z,14.80
2023-02-09T04:40:03.197Z,14.40
2023-02-09T04:42:32.309Z,12.10
2023-02-09T04:45:06.293Z,10.50
2023-02-09T04:47:35.518Z,11.13
2023-02-09T04:50:05.093Z,11.27
2023-02-09T04:52:35.707Z,9.80
2023-02-09T04:55:03.628Z,10.90
2023-02-09T04:57:59.841Z,13.47
2023-02-09T05:00:29.382Z,12.10
2023-02-09T05:02:57.272Z,11.27
2023-02-09T05:05:26.744Z,12.50
2023-02-09T05:07:54.541Z,11.67
2023-02-09T05:10:22.404Z,10.93
2023-02-09T05:12:53.511Z,11.37
2023-02-09T05:15:21.576Z,13.20
2023-02-09T05:17:51.344Z,12.03
2023-02-09T05:20:21.325Z,14.07
2023-02-09T05:22:54.544Z,11.70
2023-02-09T05:25:27.787Z,13.57
2023-02-09T05:27:55.722Z,14.03
2023-02-09T05:30:23.721Z,14.50
2023-02-09T05:32:57.434Z,13.53
2023-02-09T05:35:25.601Z,13.77
2023-02-09T05:37:55.104Z,11.97
2023-02-09T05:40:26.502Z,12.53
2023-02-09T05:42:55.028Z,14.07
2023-02-09T05:45:23.597Z,13.07
2023-02-09T05:47:51.395Z,11.43
2023-02-09T05:50:26.810Z,12.50
2023-02-09T05:52:59.263Z,14.60
2023-02-09T05:55:27.298Z,12.70
2023-02-09T05:57:57.591Z,14.30
2023-02-09T06:00:29.954Z,13.77
2023-02-09T06:02:58.743Z,12.37
2023-02-09T06:05:27.172Z,11.90
2023-02-09T06:08:01.362Z,13.03
2023-02-09T06:10:31.858Z,14.13
2023-02-09T06:12:59.673Z,11.60
2023-02-09T06:15:31.026Z,11.30
2023-02-09T06:17:58.972Z,11.10
2023-02-09T06:20:29.552Z,11.83
2023-02-09T06:23:01.946Z,12.33
2023-02-09T06:25:32.771Z,12.67
2023-02-09T06:28:00.913Z,13.00
2023-02-09T06:30:32.881Z,12.20
2023-02-09T06:33:00.968Z,14.50
2023-02-09T06:35:28.843Z,11.67
2023-02-09T06:37:59.280Z,15.47
2023-02-09T06:40:27.386Z,12.00
2023-02-09T06:42:55.519Z,14.00
2023-02-09T06:45:26.827Z,13.83
2023-02-09T06:47:54.696Z,15.57
2023-02-09T06:50:22.771Z,12.60
2023-02-09T06:52:53.310Z,12.37
2023-02-09T06:55:26.445Z,12.50
2023-02-09T06:57:55.708Z,12.87
2023-02-09T07:00:24.579Z,12.37
2023-02-09T07:02:53.244Z,14.40
2023-02-09T07:05:23.112Z,13.13
2023-02-09T07:07:56.938Z,12.47
2023-02-09T07:10:27.004Z,12.83
2023-02-09T07:12:55.197Z,13.90
2023-02-09T07:15:26.924Z,12.67
2023-02-09T07:17:54.908Z,13.10
2023-02-09T07:20:22.851Z,13.70
2023-02-09T07:22:50.901Z,12.70
2023-02-09T07:25:20.646Z,14.57
2023-02-09T07:27:50.115Z,14.93
2023-02-09T07:30:19.352Z,12.20
2023-02-09T07:32:48.220Z,13.40
2023-02-09T07:35:19.269Z,15.90
2023-02-09T07:37:51.563Z,14.33
2023-02-09T07:40:19.955Z,15.27
2023-02-09T07:42:49.250Z,12.43
2023-02-09T07:45:17.456Z,13.83
2023-02-09T07:47:46.668Z,14.50
2023-02-09T07:50:19.093Z,12.50
2023-02-09T07:52:48.020Z,12.30
2023-02-09T07:55:15.950Z,14.67
2023-02-09T07:57:44.763Z,14.83
2023-02-09T08:00:18.524Z,13.63
2023-02-09T08:02:47.112Z,14.17
2023-02-09T08:05:19.461Z,13.50
2023-02-09T08:07:49.655Z,14.33
2023-02-09T08:10:22.331Z,15.37
2023-02-09T08:13:02.554Z,16.27
2023-02-09T08:15:38.053Z,14.83
2023-02-09T08:18:13.024Z,12.87
2023-02-09T08:20:41.312Z,13.23
2023-02-09T08:23:11.730Z,13.67
2023-02-09T08:25:41.868Z,14.37
2023-02-09T08:28:09.978Z,13.50
2023-02-09T08:30:43.023Z,13.50
2023-02-09T08:33:10.964Z,14.73
2023-02-09T08:35:39.344Z,14.80
2023-02-09T08:38:12.059Z,14.70
2023-02-09T08:40:44.023Z,14.30
2023-02-09T08:43:12.356Z,11.60
2023-02-09T08:45:43.360Z,15.13
2023-02-09T08:48:11.643Z,17.70
2023-02-09T08:50:46.521Z,14.47
2023-02-09T08:53:17.422Z,14.53
2023-02-09T08:55:45.877Z,15.47
2023-02-09T08:58:14.275Z,15.67
2023-02-09T09:00:43.946Z,14.70
2023-02-09T09:03:11.756Z,15.33
2023-02-09T09:05:42.540Z,17.10
2023-02-09T09:08:12.979Z,15.73
2023-02-09T09:10:46.551Z,14.60
2023-02-09T09:13:15.674Z,15.93
2023-02-09T09:15:50.784Z,18.60
2023-02-09T09:18:18.860Z,14.77
2023-02-09T09:20:50.725Z,16.40
2023-02-09T09:23:18.748Z,15.10
2023-02-09T09:25:46.845Z,16.40
2023-02-09T09:28:16.140Z,16.10
2023-02-09T09:30:45.603Z,14.60
2023-02-09T09:33:13.583Z,16.47
2023-02-09T09:35:44.205Z,15.93
2023-02-09T09:38:14.747Z,16.80
2023-02-09T09:40:46.408Z,16.13
2023-02-09T09:43:22.242Z,14.00
2023-02-09T09:45:51.661Z,14.63
2023-02-09T09:48:25.231Z,15.70
2023-02-09T09:50:56.787Z,14.30
2023-02-09T09:53:31.878Z,15.33
2023-02-09T09:56:02.712Z,15.80
2023-02-09T09:58:36.307Z,15.00
2023-02-09T10:01:13.297Z,13.83
2023-02-09T10:03:50.860Z,16.07
2023-02-09T10:06:21.022Z,16.73
2023-02-09T10:08:53.500Z,16.33
2023-02-09T10:11:26.951Z,16.60
2023-02-09T10:13:59.051Z,16.97
2023-02-09T10:16:34.834Z,15.53
2023-02-09T10:19:03.852Z,16.43
2023-02-09T10:21:37.437Z,16.47
2023-02-09T10:24:13.029Z,15.97
2023-02-09T10:26:43.043Z,14.07
2023-02-09T10:29:24.674Z,15.27
2023-02-09T10:31:58.969Z,14.07
2023-02-09T10:34:31.708Z,13.43
2023-02-09T10:37:18.495Z,14.00
2023-02-09T10:39:49.076Z,13.73
2023-02-09T10:42:26.134Z,15.37
2023-02-09T10:44:58.142Z,14.77
2023-02-09T10:47:33.085Z,14.10
2023-02-09T10:50:18.145Z,13.00
2023-02-09T10:52:58.676Z,14.87
2023-02-09T10:55:31.637Z,12.57
2023-02-09T10:58:17.830Z,14.97
2023-02-09T11:00:57.157Z,14.87
2023-02-09T11:03:26.520Z,14.57
2023-02-09T11:06:03.576Z,17.37
2023-02-09T11:08:45.944Z,14.60
2023-02-09T11:11:24.547Z,14.60
2023-02-09T11:13:54.054Z,13.20
2023-02-09T11:16:59.849Z,16.30
2023-02-09T11:19:50.082Z,16.63
2023-02-09T11:22:21.586Z,15.13
2023-02-09T11:25:02.767Z,13.63
2023-02-09T11:27:44.910Z,14.80
2023-02-09T11:30:21.816Z,14.77
2023-02-09T11:32:53.402Z,15.47
2023-02-09T11:35:25.953Z,14.57
2023-02-09T11:37:57.419Z,16.07
2023-02-09T11:40:29.501Z,15.17
2023-02-09T11:43:04.091Z,15.07
2023-02-09T11:45:41.761Z,13.93
2023-02-09T11:48:12.830Z,15.83
2023-02-09T11:50:53.975Z,15.03
2023-02-09T11:53:30.952Z,13.60
2023-02-09T11:56:00.541Z,15.10
2023-02-09T11:58:47.549Z,15.57
2023-02-09T12:01:28.083Z,14.57
2023-02-09T12:04:11.298Z,14.20
2023-02-09T12:06:46.610Z,13.77
2023-02-09T12:09:24.987Z,14.77
2023-02-09T12:12:04.215Z,15.07
2023-02-09T12:14:45.020Z,14.30
2023-02-09T12:17:15.307Z,12.57
2023-02-09T12:19:50.558Z,12.63
2023-02-09T12:22:45.290Z,15.07
2023-02-09T12:25:35.787Z,13.50
2023-02-09T12:28:42.292Z,14.50
2023-02-09T12:31:14.019Z,14.23
2023-02-09T12:34:12.502Z,14.47
2023-02-09T12:37:01.986Z,14.20
2023-02-09T12:39:34.880Z,15.63
2023-02-09T12:42:29.356Z,16.00
2023-02-09T12:44:59.249Z,16.10
2023-02-09T12:47:48.149Z,13.10
2023-02-09T12:50:49.525Z,16.30
2023-02-09T12:53:45.378Z,15.33
2023-02-09T12:56:30.252Z,13.97
2023-02-09T12:59:14.540Z,16.27
2023-02-09T13:02:18.816Z,14.67
2023-02-09T13:04:55.588Z,13.87
2023-02-09T13:07:31.053Z,13.50
2023-02-09T13:10:00.267Z,13.00
2023-02-09T13:12:38.293Z,13.70
2023-02-09T13:15:13.958Z,15.33
2023-02-09T13:17:48.612Z,18.10
2023-02-09T13:20:48.885Z,17.73
2023-02-09T13:23:30.723Z,14.40
2023-02-09T13:26:20.029Z,15.50
2023-02-09T13:28:49.423Z,15.67
2023-02-09T13:31:23.930Z,16.90
2023-02-09T13:34:04.325Z,15.20
2023-02-09T13:36:43.223Z,16.10
2023-02-09T13:39:23.496Z,17.30
2023-02-09T13:41:55.416Z,16.47
2023-02-09T13:44:35.184Z,17.40
2023-02-09T13:47:08.339Z,16.17
2023-02-09T13:49:41.107Z,15.97
2023-02-09T13:52:12.242Z,16.03
2023-02-09T13:54:40.824Z,14.63
2023-02-09T13:57:16.698Z,16.10
2023-02-09T13:59:45.988Z,15.87
2023-02-09T14:02:22.627Z,16.00
2023-02-09T14:04:56.334Z,14.77
2023-02-09T14:07:34.796Z,15.87
2023-02-09T14:10:08.437Z,16.57
2023-02-09T14:12:55.828Z,15.93
2023-02-09T14:15:48.849Z,15.37
2023-02-09T14:18:39.068Z,15.47
2023-02-09T14:21:20.164Z,15.03
2023-02-09T14:24:15.142Z,14.13
2023-02-09T14:26:50.502Z,15.30
2023-02-09T14:29:20.657Z,14.27
2023-02-09T14:31:54.869Z,16.33
2023-02-09T14:34:33.129Z,14.50
2023-02-09T14:37:17.484Z,14.60
2023-02-09T14:39:56.825Z,15.90
2023-02-09T14:42:24.895Z,16.10
2023-02-09T14:44:57.861Z,15.77
2023-02-09T14:47:41.246Z,16.43
2023-02-09T14:50:12.794Z,16.00
2023-02-09T14:52:50.662Z,15.37
2023-02-09T14:55:21.016Z,13.57
2023-02-09T14:57:50.493Z,16.80
2023-02-09T15:00:24.546Z,15.03
2023-02-09T15:02:54.740Z,14.80
2023-02-09T15:05:28.463Z,16.20
2023-02-09T15:07:59.028Z,16.70
2023-02-09T15:10:30.565Z,16.37
2023-02-09T15:13:04.087Z,15.50
2023-02-09T15:15:33.218Z,16.20
2023-02-09T15:18:02.581Z,13.63
2023-02-09T15:20:31.456Z,14.33
2023-02-09T15:23:02.376Z,15.50
2023-02-09T15:25:30.607Z,16.20
2023-02-09T15:27:59.649Z,14.43
2023-02-09T15:30:30.822Z,15.93
2023-02-09T15:33:08.528Z,15.67
2023-02-09T15:35:37.646Z,13.90
2023-02-09T15:38:05.669Z,14.50
2023-02-09T15:40:52.838Z,15.20
2023-02-09T15:43:39.686Z,13.67
2023-02-09T15:46:26.449Z,13.23
2023-02-09T15:48:57.790Z,14.13
2023-02-09T15:51:29.973Z,15.53
2023-02-09T15:54:00.154Z,12.10
2023-02-09T15:56:30.337Z,11.80
2023-02-09T15:59:03.995Z,12.50
2023-02-09T16:01:42.106Z,14.47
2023-02-09T16:04:15.074Z,12.40
2023-02-09T16:06:49.651Z,12.20
2023-02-09T16:09:19.626Z,13.03
2023-02-09T16:11:50.542Z,11.83
2023-02-09T16:14:21.764Z,11.60
2023-02-09T16:16:50.240Z,11.30
2023-02-09T16:19:19.733Z,12.40
2023-02-09T16:21:51.887Z,11.60
2023-02-09T16:24:24.749Z,12.27
2023-02-09T16:26:55.641Z,12.70
2023-02-09T16:29:26.025Z,13.77
2023-02-09T16:31:54.860Z,11.73
2023-02-09T16:34:24.067Z,13.07
2023-02-09T16:36:53.176Z,12.60
2023-02-09T16:39:22.569Z,11.73
2023-02-09T16:41:53.724Z,13.60
2023-02-09T16:44:23.307Z,13.40
2023-02-09T16:46:53.504Z,11.80
2023-02-09T16:49:38.030Z,12.53
2023-02-09T16:52:11.400Z,12.50
2023-02-09T16:54:48.112Z,11.27
2023-02-09T16:57:26.659Z,11.47
2023-02-09T16:59:55.094Z,12.57
2023-02-09T17:02:38.536Z,11.20
2023-02-09T17:05:19.153Z,12.07
2023-02-09T17:07:54.489Z,14.10
2023-02-09T17:10:25.893Z,13.87
2023-02-09T17:12:56.852Z,13.03
2023-02-09T17:15:31.444Z,12.90
2023-02-09T17:18:04.954Z,13.50
2023-02-09T17:20:38.527Z,11.03
2023-02-09T17:23:08.290Z,15.00
2023-02-09T17:25:36.606Z,11.93
2023-02-09T17:28:04.636Z,13.60
2023-02-09T17:30:33.797Z,12.97
2023-02-09T17:33:05.687Z,12.80
2023-02-09T17:36:07.198Z,14.60
2023-02-09T17:38:29.102Z,16.03
2023-02-09T17:41:02.497Z,13.70
2023-02-09T17:43:31.472Z,13.40
2023-02-09T17:45:59.954Z,13.60
2023-02-09T17:48:28.090Z,14.27
2023-02-09T17:51:00.269Z,15.70
2023-02-09T17:53:30.397Z,13.40
2023-02-09T17:56:04.148Z,15.30
2023-02-09T17:58:32.189Z,18.27
2023-02-09T18:01:02.962Z,16.40
2023-02-09T18:03:31.202Z,18.13
2023-02-09T18:06:03.091Z,16.07
2023-02-09T18:08:31.208Z,16.93
2023-02-09T18:11:00.166Z,21.40
2023-02-09T18:13:28.575Z,22.40
2023-02-09T18:16:01.991Z,17.70
2023-02-09T18:18:36.608Z,17.00
2023-02-09T18:21:07.943Z,16.33
2023-02-09T18:23:36.070Z,18.87
2023-02-09T18:26:09.049Z,19.33
2023-02-09T18:28:36.992Z,19.20
2023-02-09T18:31:06.437Z,20.57
2023-02-09T18:33:34.917Z,20.20
2023-02-09T18:36:03.417Z,19.97
2023-02-09T18:38:41.412Z,21.63
2023-02-09T18:41:12.006Z,21.03
2023-02-09T18:43:40.319Z,20.70
2023-02-09T18:46:12.095Z,18.60
2023-02-09T18:48:41.194Z,24.27
2023-02-09T18:51:09.108Z,27.93
2023-02-09T18:53:40.141Z,27.30
2023-02-09T18:56:08.126Z,26.03
2023-02-09T18:58:36.716Z,31.27
2023-02-09T19:01:04.850Z,27.17
2023-02-09T19:03:37.976Z,29.83
2023-02-09T19:06:08.980Z,27.60
2023-02-09T19:08:38.417Z,27.40
2023-02-09T19:11:09.255Z,27.33
2023-02-09T19:13:45.996Z,26.70
2023-02-09T19:16:18.046Z,23.80
2023-02-09T19:18:50.150Z,23.07
2023-02-09T19:21:22.000Z,24.03
2023-02-09T19:23:53.997Z,20.80
2023-02-09T19:26:25.159Z,21.70
2023-02-09T19:28:58.045Z,22.70
2023-02-09T19:31:27.762Z,20.63
2023-02-09T19:33:58.452Z,23.13
2023-02-09T19:36:31.642Z,19.90
2023-02-09T19:39:04.675Z,20.10
2023-02-09T19:41:32.789Z,19.00
2023-02-09T19:44:07.315Z,21.83
2023-02-09T19:46:35.338Z,20.20
2023-02-09T19:49:06.858Z,21.53
2023-02-09T19:51:36.983Z,19.20
2023-02-09T19:54:06.760Z,19.33
2023-02-09T19:56:37.303Z,20.23
2023-02-09T19:59:07.699Z,21.67
2023-02-09T20:01:40.510Z,17.83
2023-02-09T20:04:08.405Z,21.23
2023-02-09T20:06:38.456Z,18.60
2023-02-09T20:09:07.628Z,15.90
2023-02-09T20:11:40.495Z,17.20
2023-02-09T20:14:08.398Z,18.23
2023-02-09T20:16:39.361Z,17.90
2023-02-09T20:19:10.612Z,18.60
2023-02-09T20:21:38.643Z,18.80
2023-02-09T20:24:11.628Z,18.57
2023-02-09T20:26:42.036Z,17.50
2023-02-09T20:29:11.224Z,18.57
2023-02-09T20:31:43.195Z,16.77
2023-02-09T20:34:15.967Z,18.50
2023-02-09T20:36:48.149Z,22.50
2023-02-09T20:39:23.539Z,20.40
2023-02-09T20:42:13.675Z,19.40
2023-02-09T20:44:58.864Z,22.03
2023-02-09T20:47:27.179Z,23.10
2023-02-09T20:49:57.862Z,21.67
2023-02-09T20:52:28.589Z,18.67
2023-02-09T20:54:58.606Z,17.67
2023-02-09T20:57:30.666Z,17.07
2023-02-09T21:00:03.006Z,14.90
2023-02-09T21:02:32.428Z,16.03
2023-02-09T21:05:00.335Z,13.93
2023-02-09T21:07:28.090Z,16.90
2023-02-09T21:09:57.293Z,15.93
2023-02-09T21:12:25.724Z,13.20
2023-02-09T21:14:56.587Z,17.30
2023-02-09T21:17:31.419Z,15.53
2023-02-09T21:19:59.236Z,16.00
2023-02-09T21:22:29.991Z,14.20
2023-02-09T21:25:00.653Z,17.30
2023-02-09T21:27:30.413Z,14.87
2023-02-09T21:30:01.415Z,15.90
2023-02-09T21:32:33.982Z,16.60
2023-02-09T21:35:03.891Z,16.73
2023-02-09T21:37:32.593Z,15.97
2023-02-09T21:40:07.673Z,14.57
2023-02-09T21:42:39.497Z,15.50
2023-02-09T21:45:10.959Z,13.40
2023-02-09T21:47:40.687Z,14.43
2023-02-09T21:50:11.922Z,14.23
2023-02-09T21:52:39.757Z,14.40
2023-02-09T21:55:09.492Z,19.97
2023-02-09T21:57:40.109Z,15.50
2023-02-09T22:00:09.803Z,16.10
2023-02-09T22:02:41.821Z,16.77
2023-02-09T22:05:09.800Z,16.90
2023-02-09T22:07:43.343Z,15.80
2023-02-09T22:10:15.833Z,16.17
2023-02-09T22:12:44.858Z,14.50
2023-02-09T22:15:18.022Z,18.60
2023-02-09T22:17:47.903Z,16.80
2023-02-09T22:20:18.600Z,16.43
2023-02-09T22:22:49.602Z,14.20
2023-02-09T22:25:22.756Z,15.63
2023-02-09T22:27:52.506Z,13.20
2023-02-09T22:30:23.486Z,16.60
2023-02-09T22:32:54.272Z,13.67
2023-02-09T22:35:23.339Z,15.07
2023-02-09T22:37:54.787Z,15.83
2023-02-09T22:40:23.997Z,15.87
2023-02-09T22:43:00.165Z,14.50
2023-02-09T22:45:31.212Z,15.67
2023-02-09T22:47:59.188Z,16.33
2023-02-09T22:50:29.105Z,14.13
2023-02-09T22:52:56.987Z,15.70
2023-02-09T22:55:27.366Z,13.83
2023-02-09T22:58:00.568Z,13.97
2023-02-09T23:00:28.438Z,12.30
2023-02-09T23:03:08.461Z,13.70
2023-02-09T23:05:38.877Z,12.13
2023-02-09T23:08:06.636Z,14.27
2023-02-09T23:10:35.812Z,14.53
2023-02-09T23:13:09.756Z,12.97
2023-02-09T23:15:51.661Z,12.57
2023-02-09T23:18:19.546Z,12.10
2023-02-09T23:20:52.066Z,13.10
2023-02-09T23:23:19.839Z,15.23
2023-02-09T23:25:54.427Z,12.53
2023-02-09T23:28:22.327Z,13.60
2023-02-09T23:30:51.880Z,14.03
2023-02-09T23:33:19.821Z,12.30
2023-02-09T23:35:56.200Z,12.70
2023-02-09T23:38:24.036Z,11.63
2023-02-09T23:40:59.364Z,13.43
2023-02-09T23:43:30.310Z,13.73
2023-02-09T23:46:04.048Z,13.27
2023-02-09T23:48:32.435Z,12.50
2023-02-09T23:51:02.166Z,14.67
2023-02-09T23:53:31.109Z,12.10
2023-02-09T23:56:03.840Z,12.90
2023-02-09T23:58:36.740Z,12.93
